Alta, West Virginia
Current Conditions -  °F | °C
As of 4:55 PM on Thursday 27 Nov 2014 (Local Time) from KLWB Reporting Station
Light Snow Light Snow  
Wind Chill: 25°   Ceiling: 2000
Heat Index: 31°   Visibility: 1.7mi
Dew Point: 24°   Wind: 6mph
Humidity: 78%   Direction: 300°WNW
Pressure: 30.14"   Gusts: NA
Location:  37.8345°N, 80.5736°W
Report Text: KLWB 272155Z AUTO 30005KT 1 3/4SM -SN SCT013 BKN020 OVC035 M01/M04 A3014 RMK AO2 T10081042
Loading
Personal Weather Stations






























Interactive Weather Map New forecast layout! Learn more

10-Day Weather Forecast

Advertisements
Track Severe Weather on mobile